Дата Пункты Температура Давл., мм. Влажн., % Ветер Погодные явления
Воздуха Воды Направл. Скорость
02.05.16 09:00 Одесса 14.0 13.0 762 82 Пн-С 5 09 часов
02.05.16 06:00 Одесса 11.0 12.0 762 96 Пн 1 06 часов
02.05.16 03:00 Одесса 11.0 12.0 762 96 Пн 1 03 часа
01.05.16 09:00 Одесса 14.0 12.0 762 81 З 2 21 час
01.05.16 06:00 Одесса 16.0 12.0 762 79 Пд 3 18 часов
01.05.16 03:00 Одесса 16.0 12.0 762 85 Пд-С 2 15 часов
01.05.16 12:00 Одесса 15.0 12.0 762 88 С 2 12 часов
01.05.16 09:00 Одесса 15.0 12.0 762 83 Пн 2 09 часов
01.05.16 06:00 Одесса 10.0 11.0 761 92 З 1 06 часов
01.05.16 03:00 Одесса 11.0 11.0 760 84 З 2 03 часа
30.04.16 09:00 Одесса 14.0 12.0 761 72 З 1 21 час
30.04.16 06:00 Одесса 19.0 11.0 760 51 Пд 1 18 часов
30.04.16 03:00 Одесса 19.0 11.0 760 60 Пд 3 15 часов
30.04.16 12:00 Одесса 18.0 11.0 761 64 Пн-С 2 12 часов
30.04.16 09:00 Одесса 16.0 11.0 761 69 Пн-З 1 09 часов
30.04.16 06:00 Одесса 9.0 10.0 760 98 З 2 06 часов
30.04.16 03:00 Одесса 9.0 10.0 760 98 З 2 03 часа
29.04.16 09:00 Одесса 12.0 10.0 761 90 Пд-З 3 21 час
29.04.16 06:00 Одесса 13.0 10.0 761 88 Пд 3 18 часов
29.04.16 03:00 Одесса 13.0 10.0 762 89 Пд 5 15 часов
Количество строк
351 352 353 354 355 356 357 358 359 360
Page 352 of 511